sensor_id;sensor_type;location;lat;lon;timestamp;P1;durP1;ratioP1;P2;durP2;ratioP2
52208;SDS011;38507;53.132;6.394;2023-03-18T00:01:15;15.73;;;9.40;;
52208;SDS011;38507;53.132;6.394;2023-03-18T00:03:41;16.70;;;8.75;;
52208;SDS011;38507;53.132;6.394;2023-03-18T00:06:08;14.63;;;9.20;;
52208;SDS011;38507;53.132;6.394;2023-03-18T00:08:35;15.18;;;8.98;;
52208;SDS011;38507;53.132;6.394;2023-03-18T00:11:02;14.55;;;8.45;;
52208;SDS011;38507;53.132;6.394;2023-03-18T00:13:29;14.80;;;9.30;;
52208;SDS011;38507;53.132;6.394;2023-03-18T00:15:57;14.45;;;8.85;;
52208;SDS011;38507;53.132;6.394;2023-03-18T00:18:23;16.33;;;9.00;;
52208;SDS011;38507;53.132;6.394;2023-03-18T00:20:49;15.45;;;9.77;;
52208;SDS011;38507;53.132;6.394;2023-03-18T00:23:15;13.98;;;8.85;;
52208;SDS011;38507;53.132;6.394;2023-03-18T00:25:42;14.50;;;9.27;;
52208;SDS011;38507;53.132;6.394;2023-03-18T00:28:10;17.05;;;10.20;;
52208;SDS011;38507;53.132;6.394;2023-03-18T00:30:39;13.32;;;8.40;;
52208;SDS011;38507;53.132;6.394;2023-03-18T00:33:07;17.35;;;9.32;;
52208;SDS011;38507;53.132;6.394;2023-03-18T00:35:34;12.80;;;8.63;;
52208;SDS011;38507;53.132;6.394;2023-03-18T00:38:02;12.95;;;8.93;;
52208;SDS011;38507;53.132;6.394;2023-03-18T00:40:31;17.83;;;9.70;;
52208;SDS011;38507;53.132;6.394;2023-03-18T00:43:16;18.75;;;9.52;;
52208;SDS011;38507;53.132;6.394;2023-03-18T00:45:42;14.35;;;9.27;;
52208;SDS011;38507;53.132;6.394;2023-03-18T00:48:07;14.70;;;9.70;;
52208;SDS011;38507;53.132;6.394;2023-03-18T00:50:34;18.10;;;10.10;;
52208;SDS011;38507;53.132;6.394;2023-03-18T00:53:01;20.08;;;10.57;;
52208;SDS011;38507;53.132;6.394;2023-03-18T00:55:26;16.20;;;10.95;;
52208;SDS011;38507;53.132;6.394;2023-03-18T00:57:52;19.63;;;10.60;;
52208;SDS011;38507;53.132;6.394;2023-03-18T01:00:18;20.67;;;10.60;;
52208;SDS011;38507;53.132;6.394;2023-03-18T01:02:45;16.80;;;10.65;;
52208;SDS011;38507;53.132;6.394;2023-03-18T01:05:13;17.77;;;11.23;;
52208;SDS011;38507;53.132;6.394;2023-03-18T01:07:39;16.33;;;11.88;;
52208;SDS011;38507;53.132;6.394;2023-03-18T01:10:05;24.08;;;12.93;;
52208;SDS011;38507;53.132;6.394;2023-03-18T01:12:32;23.80;;;12.82;;
52208;SDS011;38507;53.132;6.394;2023-03-18T01:14:58;20.42;;;13.77;;
52208;SDS011;38507;53.132;6.394;2023-03-18T01:17:24;25.40;;;14.20;;
52208;SDS011;38507;53.132;6.394;2023-03-18T01:19:50;26.02;;;14.85;;
52208;SDS011;38507;53.132;6.394;2023-03-18T01:22:16;23.38;;;15.95;;
52208;SDS011;38507;53.132;6.394;2023-03-18T01:24:43;25.90;;;16.33;;
52208;SDS011;38507;53.132;6.394;2023-03-18T01:27:10;29.58;;;16.85;;
52208;SDS011;38507;53.132;6.394;2023-03-18T01:29:36;26.95;;;18.02;;
52208;SDS011;38507;53.132;6.394;2023-03-18T01:32:02;31.58;;;19.15;;
52208;SDS011;38507;53.132;6.394;2023-03-18T01:34:28;29.92;;;18.50;;
52208;SDS011;38507;53.132;6.394;2023-03-18T01:36:54;31.65;;;19.92;;
52208;SDS011;38507;53.132;6.394;2023-03-18T01:39:21;25.75;;;18.52;;
52208;SDS011;38507;53.132;6.394;2023-03-18T01:41:48;31.80;;;20.02;;
52208;SDS011;38507;53.132;6.394;2023-03-18T01:44:17;30.35;;;20.75;;
52208;SDS011;38507;53.132;6.394;2023-03-18T01:46:46;31.95;;;21.45;;
52208;SDS011;38507;53.132;6.394;2023-03-18T01:51:53;31.38;;;20.73;;
52208;SDS011;38507;53.132;6.394;2023-03-18T01:54:23;32.55;;;21.60;;
52208;SDS011;38507;53.132;6.394;2023-03-18T01:56:51;29.67;;;21.05;;
52208;SDS011;38507;53.132;6.394;2023-03-18T01:59:19;31.88;;;21.45;;
52208;SDS011;38507;53.132;6.394;2023-03-18T02:04:17;29.52;;;22.27;;
52208;SDS011;38507;53.132;6.394;2023-03-18T02:06:45;35.22;;;23.55;;
52208;SDS011;38507;53.132;6.394;2023-03-18T02:09:11;34.10;;;23.42;;
52208;SDS011;38507;53.132;6.394;2023-03-18T02:11:39;35.03;;;24.00;;
52208;SDS011;38507;53.132;6.394;2023-03-18T02:14:08;32.45;;;23.95;;
52208;SDS011;38507;53.132;6.394;2023-03-18T02:16:42;32.97;;;23.48;;
52208;SDS011;38507;53.132;6.394;2023-03-18T02:27:39;34.08;;;23.75;;
52208;SDS011;38507;53.132;6.394;2023-03-18T02:30:10;37.13;;;24.42;;
52208;SDS011;38507;53.132;6.394;2023-03-18T02:32:40;35.10;;;24.60;;
52208;SDS011;38507;53.132;6.394;2023-03-18T02:35:08;31.65;;;24.48;;
52208;SDS011;38507;53.132;6.394;2023-03-18T02:37:35;35.20;;;24.80;;
52208;SDS011;38507;53.132;6.394;2023-03-18T02:40:10;33.67;;;26.17;;
52208;SDS011;38507;53.132;6.394;2023-03-18T02:42:45;32.03;;;23.10;;
52208;SDS011;38507;53.132;6.394;2023-03-18T02:45:15;34.35;;;25.48;;
52208;SDS011;38507;53.132;6.394;2023-03-18T02:47:47;33.75;;;22.50;;
52208;SDS011;38507;53.132;6.394;2023-03-18T02:50:15;41.75;;;23.90;;
52208;SDS011;38507;53.132;6.394;2023-03-18T02:52:41;34.67;;;24.10;;
52208;SDS011;38507;53.132;6.394;2023-03-18T02:55:07;37.65;;;24.20;;
52208;SDS011;38507;53.132;6.394;2023-03-18T02:57:33;40.72;;;24.73;;
52208;SDS011;38507;53.132;6.394;2023-03-18T02:59:59;37.92;;;24.27;;
52208;SDS011;38507;53.132;6.394;2023-03-18T03:02:24;32.60;;;23.58;;
52208;SDS011;38507;53.132;6.394;2023-03-18T03:04:51;35.80;;;23.30;;
52208;SDS011;38507;53.132;6.394;2023-03-18T03:07:16;31.20;;;23.73;;
52208;SDS011;38507;53.132;6.394;2023-03-18T03:09:42;34.05;;;24.05;;
52208;SDS011;38507;53.132;6.394;2023-03-18T03:12:08;31.08;;;23.02;;
52208;SDS011;38507;53.132;6.394;2023-03-18T03:14:34;38.47;;;24.98;;
52208;SDS011;38507;53.132;6.394;2023-03-18T03:16:59;35.25;;;24.38;;
52208;SDS011;38507;53.132;6.394;2023-03-18T03:19:25;35.05;;;23.30;;
52208;SDS011;38507;53.132;6.394;2023-03-18T03:21:50;37.97;;;24.80;;
52208;SDS011;38507;53.132;6.394;2023-03-18T03:24:16;35.78;;;23.80;;
52208;SDS011;38507;53.132;6.394;2023-03-18T03:26:42;36.55;;;25.10;;
52208;SDS011;38507;53.132;6.394;2023-03-18T03:29:07;34.03;;;24.55;;
52208;SDS011;38507;53.132;6.394;2023-03-18T03:31:33;43.58;;;24.70;;
52208;SDS011;38507;53.132;6.394;2023-03-18T03:33:59;35.03;;;24.38;;
52208;SDS011;38507;53.132;6.394;2023-03-18T03:36:25;38.13;;;24.42;;
52208;SDS011;38507;53.132;6.394;2023-03-18T03:38:51;36.42;;;25.70;;
52208;SDS011;38507;53.132;6.394;2023-03-18T03:41:16;33.33;;;23.55;;
52208;SDS011;38507;53.132;6.394;2023-03-18T03:43:42;37.35;;;24.38;;
52208;SDS011;38507;53.132;6.394;2023-03-18T03:46:09;37.38;;;25.58;;
52208;SDS011;38507;53.132;6.394;2023-03-18T03:48:35;32.60;;;25.00;;
52208;SDS011;38507;53.132;6.394;2023-03-18T03:51:01;34.08;;;24.45;;
52208;SDS011;38507;53.132;6.394;2023-03-18T03:53:27;33.30;;;25.25;;
52208;SDS011;38507;53.132;6.394;2023-03-18T03:55:54;35.17;;;23.70;;
52208;SDS011;38507;53.132;6.394;2023-03-18T03:58:20;37.58;;;24.77;;
52208;SDS011;38507;53.132;6.394;2023-03-18T04:00:46;38.67;;;25.30;;
52208;SDS011;38507;53.132;6.394;2023-03-18T04:03:12;37.10;;;24.13;;
52208;SDS011;38507;53.132;6.394;2023-03-18T04:05:38;36.55;;;24.23;;
52208;SDS011;38507;53.132;6.394;2023-03-18T04:08:03;42.22;;;24.85;;
52208;SDS011;38507;53.132;6.394;2023-03-18T04:10:29;33.33;;;23.83;;
52208;SDS011;38507;53.132;6.394;2023-03-18T04:12:55;36.25;;;23.95;;
52208;SDS011;38507;53.132;6.394;2023-03-18T04:15:20;36.22;;;23.85;;
52208;SDS011;38507;53.132;6.394;2023-03-18T04:17:49;36.38;;;24.00;;
52208;SDS011;38507;53.132;6.394;2023-03-18T04:20:16;44.95;;;23.95;;
52208;SDS011;38507;53.132;6.394;2023-03-18T04:22:42;37.70;;;23.48;;
52208;SDS011;38507;53.132;6.394;2023-03-18T04:25:09;33.58;;;23.33;;
52208;SDS011;38507;53.132;6.394;2023-03-18T04:27:36;34.22;;;22.17;;
52208;SDS011;38507;53.132;6.394;2023-03-18T04:30:05;33.83;;;22.92;;
52208;SDS011;38507;53.132;6.394;2023-03-18T04:32:32;32.45;;;23.17;;
52208;SDS011;38507;53.132;6.394;2023-03-18T04:34:58;32.60;;;22.55;;
52208;SDS011;38507;53.132;6.394;2023-03-18T04:37:24;36.90;;;24.20;;
52208;SDS011;38507;53.132;6.394;2023-03-18T04:39:50;35.58;;;23.65;;
52208;SDS011;38507;53.132;6.394;2023-03-18T04:42:16;33.45;;;23.58;;
52208;SDS011;38507;53.132;6.394;2023-03-18T04:44:42;32.17;;;22.38;;
52208;SDS011;38507;53.132;6.394;2023-03-18T04:47:08;38.30;;;23.52;;
52208;SDS011;38507;53.132;6.394;2023-03-18T04:49:34;35.50;;;23.92;;
52208;SDS011;38507;53.132;6.394;2023-03-18T04:52:00;34.28;;;22.63;;
52208;SDS011;38507;53.132;6.394;2023-03-18T04:54:26;33.55;;;23.58;;
52208;SDS011;38507;53.132;6.394;2023-03-18T04:56:52;38.38;;;23.60;;
52208;SDS011;38507;53.132;6.394;2023-03-18T04:59:18;40.30;;;24.58;;
52208;SDS011;38507;53.132;6.394;2023-03-18T05:01:44;34.83;;;22.77;;
52208;SDS011;38507;53.132;6.394;2023-03-18T05:04:09;37.85;;;22.75;;
52208;SDS011;38507;53.132;6.394;2023-03-18T05:06:35;38.08;;;24.52;;
52208;SDS011;38507;53.132;6.394;2023-03-18T05:09:02;38.00;;;23.42;;
52208;SDS011;38507;53.132;6.394;2023-03-18T05:11:29;34.25;;;23.70;;
52208;SDS011;38507;53.132;6.394;2023-03-18T05:13:55;39.58;;;23.80;;
52208;SDS011;38507;53.132;6.394;2023-03-18T05:16:21;31.90;;;23.05;;
52208;SDS011;38507;53.132;6.394;2023-03-18T05:18:47;37.65;;;24.70;;
52208;SDS011;38507;53.132;6.394;2023-03-18T05:21:13;35.17;;;24.35;;
52208;SDS011;38507;53.132;6.394;2023-03-18T05:23:39;40.25;;;23.83;;
52208;SDS011;38507;53.132;6.394;2023-03-18T05:26:05;40.22;;;24.42;;
52208;SDS011;38507;53.132;6.394;2023-03-18T05:28:31;36.55;;;23.83;;
52208;SDS011;38507;53.132;6.394;2023-03-18T05:30:58;39.80;;;24.80;;
52208;SDS011;38507;53.132;6.394;2023-03-18T05:33:23;41.42;;;23.15;;
52208;SDS011;38507;53.132;6.394;2023-03-18T05:35:50;46.50;;;26.77;;
52208;SDS011;38507;53.132;6.394;2023-03-18T05:38:15;48.53;;;25.85;;
52208;SDS011;38507;53.132;6.394;2023-03-18T05:40:42;45.30;;;27.33;;
52208;SDS011;38507;53.132;6.394;2023-03-18T05:43:08;52.38;;;27.40;;
52208;SDS011;38507;53.132;6.394;2023-03-18T05:45:34;48.22;;;27.80;;
52208;SDS011;38507;53.132;6.394;2023-03-18T05:48:00;51.00;;;28.55;;
52208;SDS011;38507;53.132;6.394;2023-03-18T05:50:27;50.00;;;28.33;;
52208;SDS011;38507;53.132;6.394;2023-03-18T05:52:56;47.92;;;29.27;;
52208;SDS011;38507;53.132;6.394;2023-03-18T05:55:22;47.60;;;27.63;;
52208;SDS011;38507;53.132;6.394;2023-03-18T05:57:48;45.05;;;27.58;;
52208;SDS011;38507;53.132;6.394;2023-03-18T06:00:14;50.65;;;29.08;;
52208;SDS011;38507;53.132;6.394;2023-03-18T06:02:42;50.35;;;28.52;;
52208;SDS011;38507;53.132;6.394;2023-03-18T06:05:09;38.20;;;25.00;;
52208;SDS011;38507;53.132;6.394;2023-03-18T06:07:35;45.65;;;26.83;;
52208;SDS011;38507;53.132;6.394;2023-03-18T06:10:01;43.65;;;25.85;;
52208;SDS011;38507;53.132;6.394;2023-03-18T06:12:27;42.85;;;26.77;;
52208;SDS011;38507;53.132;6.394;2023-03-18T06:14:53;40.30;;;26.70;;
52208;SDS011;38507;53.132;6.394;2023-03-18T06:17:19;43.38;;;26.30;;
52208;SDS011;38507;53.132;6.394;2023-03-18T06:19:46;43.55;;;26.80;;
52208;SDS011;38507;53.132;6.394;2023-03-18T06:22:12;41.95;;;27.10;;
52208;SDS011;38507;53.132;6.394;2023-03-18T06:24:39;40.97;;;27.75;;
52208;SDS011;38507;53.132;6.394;2023-03-18T06:27:05;38.70;;;25.65;;
52208;SDS011;38507;53.132;6.394;2023-03-18T06:29:31;40.85;;;26.88;;
52208;SDS011;38507;53.132;6.394;2023-03-18T06:31:57;43.60;;;27.77;;
52208;SDS011;38507;53.132;6.394;2023-03-18T06:34:23;41.63;;;27.20;;
52208;SDS011;38507;53.132;6.394;2023-03-18T06:36:49;40.67;;;26.38;;
52208;SDS011;38507;53.132;6.394;2023-03-18T06:39:16;38.47;;;25.13;;
52208;SDS011;38507;53.132;6.394;2023-03-18T06:41:43;38.67;;;25.70;;
52208;SDS011;38507;53.132;6.394;2023-03-18T06:44:08;38.88;;;24.85;;
52208;SDS011;38507;53.132;6.394;2023-03-18T06:46:35;37.35;;;24.92;;
52208;SDS011;38507;53.132;6.394;2023-03-18T06:49:01;38.92;;;25.15;;
52208;SDS011;38507;53.132;6.394;2023-03-18T06:51:27;37.95;;;25.77;;
52208;SDS011;38507;53.132;6.394;2023-03-18T06:53:53;40.63;;;25.52;;
52208;SDS011;38507;53.132;6.394;2023-03-18T06:56:18;34.90;;;24.48;;
52208;SDS011;38507;53.132;6.394;2023-03-18T06:58:44;33.95;;;23.08;;
52208;SDS011;38507;53.132;6.394;2023-03-18T07:01:10;41.53;;;25.92;;
52208;SDS011;38507;53.132;6.394;2023-03-18T07:03:36;43.33;;;26.02;;
52208;SDS011;38507;53.132;6.394;2023-03-18T07:06:02;36.15;;;24.55;;
52208;SDS011;38507;53.132;6.394;2023-03-18T07:08:28;37.78;;;24.77;;
52208;SDS011;38507;53.132;6.394;2023-03-18T07:10:54;39.08;;;25.60;;
52208;SDS011;38507;53.132;6.394;2023-03-18T07:13:20;38.03;;;26.17;;
52208;SDS011;38507;53.132;6.394;2023-03-18T07:15:45;32.00;;;23.52;;
52208;SDS011;38507;53.132;6.394;2023-03-18T07:18:12;42.17;;;27.40;;
52208;SDS011;38507;53.132;6.394;2023-03-18T07:20:38;35.03;;;24.88;;
52208;SDS011;38507;53.132;6.394;2023-03-18T07:23:04;37.47;;;24.08;;
52208;SDS011;38507;53.132;6.394;2023-03-18T07:25:30;38.50;;;24.58;;
52208;SDS011;38507;53.132;6.394;2023-03-18T07:27:56;40.75;;;24.80;;
52208;SDS011;38507;53.132;6.394;2023-03-18T07:30:24;41.95;;;26.73;;
52208;SDS011;38507;53.132;6.394;2023-03-18T07:32:51;44.08;;;25.30;;
52208;SDS011;38507;53.132;6.394;2023-03-18T07:35:17;40.33;;;25.02;;
52208;SDS011;38507;53.132;6.394;2023-03-18T07:37:43;38.40;;;25.23;;
52208;SDS011;38507;53.132;6.394;2023-03-18T07:40:09;40.85;;;26.23;;
52208;SDS011;38507;53.132;6.394;2023-03-18T07:42:36;36.42;;;26.58;;
52208;SDS011;38507;53.132;6.394;2023-03-18T07:45:02;43.65;;;26.67;;
52208;SDS011;38507;53.132;6.394;2023-03-18T07:47:29;41.00;;;26.25;;
52208;SDS011;38507;53.132;6.394;2023-03-18T07:49:55;37.88;;;26.38;;
52208;SDS011;38507;53.132;6.394;2023-03-18T07:52:21;35.70;;;25.55;;
52208;SDS011;38507;53.132;6.394;2023-03-18T07:54:47;43.08;;;27.50;;
52208;SDS011;38507;53.132;6.394;2023-03-18T07:57:13;36.55;;;26.95;;
52208;SDS011;38507;53.132;6.394;2023-03-18T07:59:38;35.92;;;25.02;;
52208;SDS011;38507;53.132;6.394;2023-03-18T08:02:04;37.90;;;26.83;;
52208;SDS011;38507;53.132;6.394;2023-03-18T08:04:32;35.40;;;26.10;;
52208;SDS011;38507;53.132;6.394;2023-03-18T08:06:59;39.88;;;26.35;;
52208;SDS011;38507;53.132;6.394;2023-03-18T08:09:25;37.20;;;25.38;;
52208;SDS011;38507;53.132;6.394;2023-03-18T08:11:51;33.22;;;24.55;;
52208;SDS011;38507;53.132;6.394;2023-03-18T08:14:18;35.83;;;25.58;;
52208;SDS011;38507;53.132;6.394;2023-03-18T08:16:44;34.95;;;25.00;;
52208;SDS011;38507;53.132;6.394;2023-03-18T08:19:10;37.85;;;25.02;;
52208;SDS011;38507;53.132;6.394;2023-03-18T08:21:36;38.22;;;26.52;;
52208;SDS011;38507;53.132;6.394;2023-03-18T08:24:02;40.20;;;26.70;;
52208;SDS011;38507;53.132;6.394;2023-03-18T08:26:28;35.40;;;25.52;;
52208;SDS011;38507;53.132;6.394;2023-03-18T08:28:53;38.00;;;26.75;;
52208;SDS011;38507;53.132;6.394;2023-03-18T08:31:19;39.80;;;26.70;;
52208;SDS011;38507;53.132;6.394;2023-03-18T08:33:45;36.72;;;26.00;;
52208;SDS011;38507;53.132;6.394;2023-03-18T08:36:11;40.53;;;25.65;;
52208;SDS011;38507;53.132;6.394;2023-03-18T08:38:38;36.47;;;24.83;;
52208;SDS011;38507;53.132;6.394;2023-03-18T08:41:04;35.45;;;25.75;;
52208;SDS011;38507;53.132;6.394;2023-03-18T08:43:30;36.10;;;25.17;;
52208;SDS011;38507;53.132;6.394;2023-03-18T08:45:56;35.75;;;24.38;;
52208;SDS011;38507;53.132;6.394;2023-03-18T08:48:22;32.97;;;25.48;;
52208;SDS011;38507;53.132;6.394;2023-03-18T08:50:49;35.72;;;24.75;;
52208;SDS011;38507;53.132;6.394;2023-03-18T08:53:17;38.05;;;25.33;;
52208;SDS011;38507;53.132;6.394;2023-03-18T08:55:43;35.85;;;24.42;;
52208;SDS011;38507;53.132;6.394;2023-03-18T08:58:10;33.72;;;24.98;;
52208;SDS011;38507;53.132;6.394;2023-03-18T09:00:37;35.70;;;24.83;;
52208;SDS011;38507;53.132;6.394;2023-03-18T09:03:04;36.65;;;25.13;;
52208;SDS011;38507;53.132;6.394;2023-03-18T09:05:30;33.85;;;24.70;;
52208;SDS011;38507;53.132;6.394;2023-03-18T09:07:57;35.20;;;26.95;;
52208;SDS011;38507;53.132;6.394;2023-03-18T09:10:24;37.25;;;25.92;;
52208;SDS011;38507;53.132;6.394;2023-03-18T09:12:50;37.45;;;25.65;;
52208;SDS011;38507;53.132;6.394;2023-03-18T09:15:16;36.92;;;26.10;;
52208;SDS011;38507;53.132;6.394;2023-03-18T09:17:46;42.70;;;27.50;;
52208;SDS011;38507;53.132;6.394;2023-03-18T09:20:13;39.20;;;26.73;;
52208;SDS011;38507;53.132;6.394;2023-03-18T09:22:40;37.15;;;27.08;;
52208;SDS011;38507;53.132;6.394;2023-03-18T09:25:07;40.20;;;27.73;;
52208;SDS011;38507;53.132;6.394;2023-03-18T09:27:34;37.38;;;26.63;;
52208;SDS011;38507;53.132;6.394;2023-03-18T09:30:00;43.05;;;28.42;;
52208;SDS011;38507;53.132;6.394;2023-03-18T09:32:29;39.85;;;28.60;;
52208;SDS011;38507;53.132;6.394;2023-03-18T09:34:55;39.05;;;27.63;;
52208;SDS011;38507;53.132;6.394;2023-03-18T09:37:21;34.78;;;27.58;;
52208;SDS011;38507;53.132;6.394;2023-03-18T09:39:46;43.30;;;29.30;;
52208;SDS011;38507;53.132;6.394;2023-03-18T09:42:19;36.80;;;27.65;;
52208;SDS011;38507;53.132;6.394;2023-03-18T09:44:48;35.85;;;26.55;;
52208;SDS011;38507;53.132;6.394;2023-03-18T09:47:41;36.75;;;25.48;;
52208;SDS011;38507;53.132;6.394;2023-03-18T09:50:26;39.00;;;28.52;;
52208;SDS011;38507;53.132;6.394;2023-03-18T09:55:44;35.47;;;26.30;;
52208;SDS011;38507;53.132;6.394;2023-03-18T09:58:16;35.15;;;27.02;;
52208;SDS011;38507;53.132;6.394;2023-03-18T10:00:56;36.08;;;25.92;;
52208;SDS011;38507;53.132;6.394;2023-03-18T10:11:20;32.53;;;24.77;;
52208;SDS011;38507;53.132;6.394;2023-03-18T10:13:59;35.58;;;24.25;;
52208;SDS011;38507;53.132;6.394;2023-03-18T10:19:41;32.85;;;24.92;;
52208;SDS011;38507;53.132;6.394;2023-03-18T10:27:34;31.27;;;23.35;;
52208;SDS011;38507;53.132;6.394;2023-03-18T10:33:08;32.72;;;23.63;;
52208;SDS011;38507;53.132;6.394;2023-03-18T10:38:43;31.25;;;22.88;;
52208;SDS011;38507;53.132;6.394;2023-03-18T10:41:24;29.75;;;22.42;;
52208;SDS011;38507;53.132;6.394;2023-03-18T10:43:56;28.80;;;22.77;;
52208;SDS011;38507;53.132;6.394;2023-03-18T10:46:25;29.15;;;21.33;;
52208;SDS011;38507;53.132;6.394;2023-03-18T10:48:56;27.25;;;21.30;;
52208;SDS011;38507;53.132;6.394;2023-03-18T10:54:17;23.17;;;19.15;;
52208;SDS011;38507;53.132;6.394;2023-03-18T10:56:51;28.65;;;20.63;;
52208;SDS011;38507;53.132;6.394;2023-03-18T10:59:17;28.15;;;19.70;;
52208;SDS011;38507;53.132;6.394;2023-03-18T11:01:47;22.77;;;18.30;;
52208;SDS011;38507;53.132;6.394;2023-03-18T11:04:19;25.00;;;16.88;;
52208;SDS011;38507;53.132;6.394;2023-03-18T11:06:51;17.85;;;13.93;;
52208;SDS011;38507;53.132;6.394;2023-03-18T11:09:30;24.17;;;15.90;;
52208;SDS011;38507;53.132;6.394;2023-03-18T11:12:04;21.13;;;15.52;;
52208;SDS011;38507;53.132;6.394;2023-03-18T11:14:37;18.60;;;13.98;;
52208;SDS011;38507;53.132;6.394;2023-03-18T11:17:05;20.52;;;14.07;;
52208;SDS011;38507;53.132;6.394;2023-03-18T11:20:05;17.48;;;12.77;;
52208;SDS011;38507;53.132;6.394;2023-03-18T11:22:32;18.88;;;13.82;;
52208;SDS011;38507;53.132;6.394;2023-03-18T11:25:31;22.50;;;14.10;;
52208;SDS011;38507;53.132;6.394;2023-03-18T11:27:52;21.83;;;15.65;;
52208;SDS011;38507;53.132;6.394;2023-03-18T11:30:26;20.58;;;13.90;;
52208;SDS011;38507;53.132;6.394;2023-03-18T11:35:44;19.10;;;13.15;;
52208;SDS011;38507;53.132;6.394;2023-03-18T11:38:16;14.77;;;10.93;;
52208;SDS011;38507;53.132;6.394;2023-03-18T11:40:52;18.27;;;13.25;;
52208;SDS011;38507;53.132;6.394;2023-03-18T11:43:33;22.80;;;12.55;;
52208;SDS011;38507;53.132;6.394;2023-03-18T11:46:02;19.88;;;12.68;;
52208;SDS011;38507;53.132;6.394;2023-03-18T11:48:37;15.60;;;11.40;;
52208;SDS011;38507;53.132;6.394;2023-03-18T11:51:47;21.67;;;11.77;;
52208;SDS011;38507;53.132;6.394;2023-03-18T11:54:15;13.63;;;9.20;;
52208;SDS011;38507;53.132;6.394;2023-03-18T11:56:59;16.95;;;10.57;;
52208;SDS011;38507;53.132;6.394;2023-03-18T12:05:13;15.25;;;10.85;;
52208;SDS011;38507;53.132;6.394;2023-03-18T12:13:37;19.42;;;12.85;;
52208;SDS011;38507;53.132;6.394;2023-03-18T12:21:44;16.02;;;10.65;;
52208;SDS011;38507;53.132;6.394;2023-03-18T12:30:32;16.55;;;9.73;;
52208;SDS011;38507;53.132;6.394;2023-03-18T12:50:35;12.13;;;7.65;;
52208;SDS011;38507;53.132;6.394;2023-03-18T12:53:07;10.95;;;7.25;;
52208;SDS011;38507;53.132;6.394;2023-03-18T12:55:43;9.68;;;6.47;;
52208;SDS011;38507;53.132;6.394;2023-03-18T12:58:22;11.15;;;7.47;;
52208;SDS011;38507;53.132;6.394;2023-03-18T13:01:30;8.90;;;6.75;;
52208;SDS011;38507;53.132;6.394;2023-03-18T13:04:11;9.90;;;6.25;;
52208;SDS011;38507;53.132;6.394;2023-03-18T13:16:54;9.40;;;5.72;;
52208;SDS011;38507;53.132;6.394;2023-03-18T13:19:22;7.95;;;5.70;;
52208;SDS011;38507;53.132;6.394;2023-03-18T13:21:49;8.55;;;5.53;;
52208;SDS011;38507;53.132;6.394;2023-03-18T13:24:31;7.25;;;4.40;;
52208;SDS011;38507;53.132;6.394;2023-03-18T13:30:05;8.25;;;4.60;;
52208;SDS011;38507;53.132;6.394;2023-03-18T13:32:48;8.10;;;4.05;;
52208;SDS011;38507;53.132;6.394;2023-03-18T13:44:41;6.78;;;4.72;;
52208;SDS011;38507;53.132;6.394;2023-03-18T13:47:19;5.85;;;4.00;;
52208;SDS011;38507;53.132;6.394;2023-03-18T13:49:46;6.43;;;4.00;;
52208;SDS011;38507;53.132;6.394;2023-03-18T13:52:32;8.13;;;4.72;;
52208;SDS011;38507;53.132;6.394;2023-03-18T13:55:14;8.88;;;3.90;;
52208;SDS011;38507;53.132;6.394;2023-03-18T14:05:42;9.32;;;4.47;;
52208;SDS011;38507;53.132;6.394;2023-03-18T14:11:35;8.00;;;4.32;;
52208;SDS011;38507;53.132;6.394;2023-03-18T14:14:00;9.75;;;4.25;;
52208;SDS011;38507;53.132;6.394;2023-03-18T14:19:24;7.32;;;3.97;;
52208;SDS011;38507;53.132;6.394;2023-03-18T14:22:18;7.55;;;4.20;;
52208;SDS011;38507;53.132;6.394;2023-03-18T14:27:46;8.13;;;4.72;;
52208;SDS011;38507;53.132;6.394;2023-03-18T14:32:58;7.18;;;4.38;;
52208;SDS011;38507;53.132;6.394;2023-03-18T14:35:32;6.57;;;4.40;;
52208;SDS011;38507;53.132;6.394;2023-03-18T14:38:14;6.68;;;4.70;;
52208;SDS011;38507;53.132;6.394;2023-03-18T14:40:44;9.27;;;5.03;;
52208;SDS011;38507;53.132;6.394;2023-03-18T14:43:33;10.35;;;5.25;;
52208;SDS011;38507;53.132;6.394;2023-03-18T14:46:07;8.23;;;5.38;;
52208;SDS011;38507;53.132;6.394;2023-03-18T14:48:43;12.60;;;5.30;;
52208;SDS011;38507;53.132;6.394;2023-03-18T14:51:13;8.30;;;5.05;;
52208;SDS011;38507;53.132;6.394;2023-03-18T14:56:21;7.22;;;4.55;;
52208;SDS011;38507;53.132;6.394;2023-03-18T14:58:50;8.85;;;4.43;;
52208;SDS011;38507;53.132;6.394;2023-03-18T15:01:24;9.18;;;5.20;;
52208;SDS011;38507;53.132;6.394;2023-03-18T15:03:56;8.93;;;5.05;;
52208;SDS011;38507;53.132;6.394;2023-03-18T15:06:23;6.47;;;4.28;;
52208;SDS011;38507;53.132;6.394;2023-03-18T15:09:04;8.13;;;4.65;;
52208;SDS011;38507;53.132;6.394;2023-03-18T15:11:37;9.23;;;4.57;;
52208;SDS011;38507;53.132;6.394;2023-03-18T15:14:14;8.55;;;4.72;;
52208;SDS011;38507;53.132;6.394;2023-03-18T15:17:00;8.70;;;4.65;;
52208;SDS011;38507;53.132;6.394;2023-03-18T15:19:28;7.70;;;4.63;;
52208;SDS011;38507;53.132;6.394;2023-03-18T15:21:57;9.98;;;5.15;;
52208;SDS011;38507;53.132;6.394;2023-03-18T15:24:28;9.07;;;5.22;;
52208;SDS011;38507;53.132;6.394;2023-03-18T15:26:55;8.27;;;5.72;;
52208;SDS011;38507;53.132;6.394;2023-03-18T15:29:28;11.20;;;6.03;;
52208;SDS011;38507;53.132;6.394;2023-03-18T15:40:13;9.77;;;6.07;;
52208;SDS011;38507;53.132;6.394;2023-03-18T15:42:52;12.30;;;6.72;;
52208;SDS011;38507;53.132;6.394;2023-03-18T15:45:20;12.10;;;7.57;;
52208;SDS011;38507;53.132;6.394;2023-03-18T15:47:51;11.05;;;6.55;;
52208;SDS011;38507;53.132;6.394;2023-03-18T15:52:43;12.57;;;6.97;;
52208;SDS011;38507;53.132;6.394;2023-03-18T15:55:26;9.63;;;6.68;;
52208;SDS011;38507;53.132;6.394;2023-03-18T15:58:14;9.27;;;6.68;;
52208;SDS011;38507;53.132;6.394;2023-03-18T16:00:52;9.82;;;6.90;;
52208;SDS011;38507;53.132;6.394;2023-03-18T16:03:23;11.18;;;6.93;;
52208;SDS011;38507;53.132;6.394;2023-03-18T16:05:51;10.50;;;6.68;;
52208;SDS011;38507;53.132;6.394;2023-03-18T16:08:18;11.13;;;6.57;;
52208;SDS011;38507;53.132;6.394;2023-03-18T16:10:45;12.30;;;6.90;;
52208;SDS011;38507;53.132;6.394;2023-03-18T16:13:17;10.30;;;6.55;;
52208;SDS011;38507;53.132;6.394;2023-03-18T16:16:02;11.85;;;7.25;;
52208;SDS011;38507;53.132;6.394;2023-03-18T16:18:28;11.88;;;6.07;;
52208;SDS011;38507;53.132;6.394;2023-03-18T16:20:56;10.80;;;6.65;;
52208;SDS011;38507;53.132;6.394;2023-03-18T16:23:22;13.50;;;6.75;;
52208;SDS011;38507;53.132;6.394;2023-03-18T16:25:51;8.13;;;5.85;;
52208;SDS011;38507;53.132;6.394;2023-03-18T16:30:49;10.88;;;6.97;;
52208;SDS011;38507;53.132;6.394;2023-03-18T16:33:19;10.35;;;6.65;;
52208;SDS011;38507;53.132;6.394;2023-03-18T16:35:48;11.27;;;7.55;;
52208;SDS011;38507;53.132;6.394;2023-03-18T16:38:25;11.07;;;6.53;;
52208;SDS011;38507;53.132;6.394;2023-03-18T16:40:52;7.65;;;5.00;;
52208;SDS011;38507;53.132;6.394;2023-03-18T16:43:20;12.10;;;5.40;;
52208;SDS011;38507;53.132;6.394;2023-03-18T16:45:58;10.07;;;5.22;;
52208;SDS011;38507;53.132;6.394;2023-03-18T16:48:25;7.93;;;5.07;;
52208;SDS011;38507;53.132;6.394;2023-03-18T16:50:51;7.53;;;4.50;;
52208;SDS011;38507;53.132;6.394;2023-03-18T16:53:21;7.85;;;3.95;;
52208;SDS011;38507;53.132;6.394;2023-03-18T16:55:52;6.22;;;3.00;;
52208;SDS011;38507;53.132;6.394;2023-03-18T16:58:33;3.78;;;1.90;;
52208;SDS011;38507;53.132;6.394;2023-03-18T17:01:00;7.18;;;2.80;;